Time;durP1;ratioP1;P1;durP2;ratioP2;P2;SDS_P1;SDS_P2;PMS_P1;PMS_P2;Temp;Humidity;BMP_temperature;BMP_pressure;BME280_temperature;BME280_humidity;BME280_pressure;Samples;Min_cycle;Max_cycle;Signal;HPM_P1;HPM_P2
2021/05/02 00:00:41;;;;;;;46.42;24.98;;;;;;;6.98;100.00;96015.03;4935216;28;20223;-70
2021/05/02 00:03:08;;;;;;;48.75;26.88;;;;;;;7.12;100.00;96022.84;4939785;28;20235;-69
2021/05/02 00:05:37;;;;;;;44.70;25.95;;;;;;;7.19;100.00;96026.75;4941072;28;20254;-72
2021/05/02 00:08:06;;;;;;;43.67;24.73;;;;;;;6.99;100.00;96020.13;4935333;28;20215;-70
2021/05/02 00:10:37;;;;;;;45.92;26.58;;;;;;;7.13;100.00;96024.53;4940611;28;20223;-71
2021/05/02 00:13:04;;;;;;;45.88;25.98;;;;;;;7.18;100.00;96027.66;4940969;28;20206;-71
2021/05/02 00:15:32;;;;;;;47.97;25.33;;;;;;;7.08;100.00;96027.34;4947571;28;20285;-69
2021/05/02 00:18:02;;;;;;;53.05;28.25;;;;;;;7.11;100.00;96036.69;4944746;28;20623;-70
2021/05/02 00:20:29;;;;;;;52.22;26.35;;;;;;;7.10;100.00;96035.88;4947586;28;20231;-70
2021/05/02 00:23:00;;;;;;;48.65;27.33;;;;;;;7.14;100.00;96037.34;4944372;28;20665;-69
2021/05/02 00:25:30;;;;;;;45.38;26.17;;;;;;;7.04;100.00;96030.22;4949666;28;20663;-71
2021/05/02 00:27:58;;;;;;;46.60;25.95;;;;;;;7.04;100.00;96040.56;4948536;28;20551;-70
2021/05/02 00:30:26;;;;;;;46.78;25.20;;;;;;;6.99;100.00;96043.41;4913259;28;20678;-71
2021/05/02 00:32:55;;;;;;;42.17;24.70;;;;;;;7.01;100.00;96046.72;4947628;28;20242;-72
2021/05/02 00:35:23;;;;;;;47.25;26.25;;;;;;;7.07;100.00;96045.56;4943741;28;20810;-71
2021/05/02 00:37:50;;;;;;;42.22;25.20;;;;;;;7.02;100.00;96047.59;4939676;28;20188;-70
2021/05/02 00:40:19;;;;;;;50.30;24.90;;;;;;;7.07;100.00;96055.94;4939066;28;20223;-72
2021/05/02 00:42:49;;;;;;;44.97;23.40;;;;;;;7.03;100.00;96051.84;4922941;28;20195;-72
2021/05/02 00:45:25;;;;;;;43.40;25.08;;;;;;;7.04;100.00;96053.50;4943598;28;20230;-70
2021/05/02 00:47:55;;;;;;;42.38;24.58;;;;;;;6.94;100.00;96052.34;4939113;28;20321;-70
2021/05/02 00:50:28;;;;;;;37.10;21.60;;;;;;;6.91;100.00;96066.28;4940122;28;20342;-72
2021/05/02 00:53:14;;;;;;;39.22;22.58;;;;;;;6.86;100.00;96059.72;4946377;28;20207;-70
2021/05/02 00:55:47;;;;;;;37.97;22.60;;;;;;;6.84;99.93;96059.78;4942493;28;20542;-72
2021/05/02 00:58:30;;;;;;;35.08;21.52;;;;;;;6.77;99.98;96068.00;4945269;28;20199;-70
2021/05/02 01:01:00;;;;;;;40.58;21.67;;;;;;;6.66;99.72;96054.81;4939218;28;20714;-71
2021/05/02 01:03:30;;;;;;;38.35;21.05;;;;;;;6.71;99.96;96073.50;4938700;28;20234;-72
2021/05/02 01:06:02;;;;;;;43.13;21.00;;;;;;;6.75;100.00;96074.97;4945599;28;20191;-72
2021/05/02 01:08:30;;;;;;;35.35;20.60;;;;;;;6.73;99.72;96077.69;4938634;28;20214;-72
2021/05/02 01:10:59;;;;;;;27.52;17.40;;;;;;;6.70;98.90;96077.84;4946808;28;20639;-71
2021/05/02 01:13:35;;;;;;;32.83;19.73;;;;;;;6.67;99.22;96077.16;4944319;28;20250;-71
2021/05/02 01:16:04;;;;;;;35.88;21.05;;;;;;;6.68;99.40;96090.03;4947417;28;20705;-70
2021/05/02 01:18:31;;;;;;;32.85;18.50;;;;;;;6.75;98.85;96085.31;4942877;28;20619;-71
2021/05/02 01:20:58;;;;;;;32.75;17.40;;;;;;;6.71;98.62;96084.66;4942540;28;20573;-70
2021/05/02 01:23:27;;;;;;;30.45;18.40;;;;;;;6.75;98.33;96087.91;4942798;28;20714;-70
2021/05/02 01:25:56;;;;;;;27.35;16.38;;;;;;;6.50;97.91;96059.16;4948395;28;20195;-70
2021/05/02 01:28:23;;;;;;;29.75;16.38;;;;;;;6.74;97.87;96094.00;4934777;28;20669;-70
2021/05/02 01:30:51;;;;;;;28.08;17.25;;;;;;;6.64;97.52;96095.44;4945796;28;20199;-71
2021/05/02 01:33:18;;;;;;;27.08;16.92;;;;;;;6.70;97.83;96092.53;4945177;28;20945;-72
2021/05/02 01:35:46;;;;;;;25.75;17.55;;;;;;;6.55;97.61;96103.72;4946335;28;20194;-71
2021/05/02 01:38:14;;;;;;;27.08;16.55;;;;;;;6.60;98.40;96101.69;4941501;28;20195;-73
2021/05/02 01:40:42;;;;;;;31.63;17.60;;;;;;;6.66;98.50;96106.53;4938070;28;20223;-70
2021/05/02 01:43:09;;;;;;;26.90;17.02;;;;;;;6.67;97.47;96105.59;4939853;28;20717;-71
2021/05/02 01:45:36;;;;;;;30.08;16.80;;;;;;;6.68;98.14;96105.53;4946818;28;20278;-71
2021/05/02 01:48:06;;;;;;;29.75;16.92;;;;;;;6.72;98.41;96111.38;4944964;28;20811;-71
2021/05/02 01:50:37;;;;;;;32.95;18.27;;;;;;;6.53;97.92;96106.38;4944597;28;20230;-71
2021/05/02 01:53:05;;;;;;;36.92;18.02;;;;;;;6.52;98.36;96111.59;4945271;28;20195;-73
2021/05/02 01:55:33;;;;;;;32.08;19.05;;;;;;;6.60;98.56;96118.03;4944028;28;20608;-70
2021/05/02 01:58:01;;;;;;;35.40;19.05;;;;;;;6.68;98.92;96115.03;4945867;28;20227;-72
2021/05/02 02:00:41;;;;;;;33.53;20.60;;;;;;;6.71;98.48;96127.81;4940211;28;20605;-71
2021/05/02 02:03:09;;;;;;;30.73;18.75;;;;;;;6.64;98.50;96126.47;4944647;28;20301;-69
2021/05/02 02:05:39;;;;;;;30.13;18.55;;;;;;;6.68;98.57;96133.13;4926875;28;20678;-71
2021/05/02 02:08:07;;;;;;;29.92;20.23;;;;;;;6.69;98.92;96130.47;4939164;28;20650;-70
2021/05/02 02:10:35;;;;;;;34.75;20.75;;;;;;;6.64;99.26;96132.47;4943159;28;20698;-69
2021/05/02 02:13:12;;;;;;;33.92;21.65;;;;;;;6.71;99.47;96132.97;4942737;28;20187;-71
2021/05/02 02:15:40;;;;;;;37.47;20.85;;;;;;;6.78;99.24;96136.91;4936016;28;20748;-71
2021/05/02 02:18:08;;;;;;;34.55;21.17;;;;;;;6.81;99.19;96137.56;4943559;28;20241;-69
2021/05/02 02:20:39;;;;;;;31.35;20.35;;;;;;;6.81;99.14;96141.91;4945089;28;20219;-69
2021/05/02 02:23:10;;;;;;;36.70;22.65;;;;;;;6.84;99.59;96147.72;4944370;28;20573;-69
2021/05/02 02:25:41;;;;;;;37.92;20.67;;;;;;;6.85;99.46;96144.22;4948605;28;20260;-73
2021/05/02 02:28:12;;;;;;;31.83;20.15;;;;;;;6.86;99.14;96137.31;4943699;28;20223;-71
2021/05/02 02:30:42;;;;;;;31.45;19.60;;;;;;;6.90;99.13;96149.13;4936782;28;20614;-70
2021/05/02 02:33:09;;;;;;;35.92;21.20;;;;;;;6.79;98.99;96154.09;4943730;28;20879;-70
2021/05/02 02:35:42;;;;;;;32.07;18.50;;;;;;;6.83;99.39;96150.38;4937188;28;20552;-71
2021/05/02 02:38:14;;;;;;;31.20;20.92;;;;;;;6.91;99.21;96158.59;4945822;28;20441;-70
2021/05/02 02:40:43;;;;;;;34.00;20.30;;;;;;;6.93;99.53;96151.59;4939353;28;20701;-71
2021/05/02 02:43:19;;;;;;;31.13;19.95;;;;;;;6.98;98.81;96159.91;4943811;28;20823;-71
2021/05/02 02:45:48;;;;;;;39.95;21.35;;;;;;;6.96;98.95;96164.34;4937519;28;20215;-71
2021/05/02 02:48:20;;;;;;;35.40;20.73;;;;;;;6.96;99.29;96166.91;4936668;28;20215;-71
2021/05/02 02:50:48;;;;;;;35.05;22.88;;;;;;;6.96;99.15;96162.59;4933146;28;20914;-71
2021/05/02 02:53:18;;;;;;;40.67;23.55;;;;;;;7.02;98.32;96166.59;4945348;28;20593;-71
2021/05/02 02:56:04;;;;;;;36.90;22.88;;;;;;;7.03;98.16;96168.25;4929985;28;20548;-72
2021/05/02 02:58:36;;;;;;;42.35;22.90;;;;;;;7.04;98.65;96170.78;4951624;28;20222;-72
2021/05/02 03:01:05;;;;;;;40.70;22.40;;;;;;;7.08;98.40;96163.66;4938804;28;20191;-71
2021/05/02 03:03:33;;;;;;;33.40;20.83;;;;;;;7.12;98.46;96167.75;4945943;28;20857;-70
2021/05/02 03:06:01;;;;;;;34.87;22.43;;;;;;;7.08;98.25;96168.84;4946802;28;20845;-70
2021/05/02 03:08:30;;;;;;;38.58;23.65;;;;;;;7.13;97.73;96170.25;4948942;28;20521;-70
2021/05/02 03:10:58;;;;;;;39.38;23.88;;;;;;;7.12;97.87;96163.41;4939400;28;20650;-71
2021/05/02 03:13:25;;;;;;;39.03;25.17;;;;;;;7.11;97.66;96160.91;4936479;28;20701;-70
2021/05/02 03:15:53;;;;;;;37.70;22.70;;;;;;;7.12;98.33;96168.59;4936221;28;20523;-71
2021/05/02 03:18:24;;;;;;;32.53;19.75;;;;;;;7.18;97.77;96172.59;4941601;28;20602;-72
2021/05/02 03:20:58;;;;;;;37.85;22.67;;;;;;;7.15;97.35;96159.81;4948054;28;20515;-71
2021/05/02 03:23:31;;;;;;;38.50;21.63;;;;;;;7.08;96.60;96164.50;4941596;28;20197;-69
2021/05/02 03:26:01;;;;;;;41.17;22.85;;;;;;;7.17;96.65;96176.09;4947926;28;20646;-73
2021/05/02 03:28:33;;;;;;;40.92;24.83;;;;;;;7.13;96.39;96185.78;4938644;28;20207;-73
2021/05/02 03:31:04;;;;;;;34.33;22.27;;;;;;;6.89;97.80;96188.88;4946187;28;20211;-70
2021/05/02 03:33:35;;;;;;;35.65;21.52;;;;;;;6.69;99.11;96202.06;4941013;28;20726;-71
2021/05/02 03:36:09;;;;;;;41.20;23.33;;;;;;;6.58;99.63;96199.19;4940395;28;20199;-71
2021/05/02 03:38:45;;;;;;;36.50;20.55;;;;;;;6.51;99.53;96195.25;4940252;28;20257;-71
2021/05/02 03:41:13;;;;;;;38.08;21.75;;;;;;;6.35;99.81;96200.38;4942121;28;20209;-70
2021/05/02 03:43:40;;;;;;;37.70;22.30;;;;;;;6.29;100.00;96200.72;4923960;28;20227;-69
2021/05/02 03:46:23;;;;;;;40.40;23.58;;;;;;;6.35;100.00;96204.72;4945652;28;20191;-69
2021/05/02 03:48:54;;;;;;;38.55;21.65;;;;;;;6.33;100.00;96202.22;4945873;28;20726;-70
2021/05/02 03:51:21;;;;;;;38.55;23.73;;;;;;;6.42;100.00;96211.25;4945224;28;20774;-69
2021/05/02 03:53:49;;;;;;;42.85;23.20;;;;;;;6.38;100.00;96207.13;4947973;28;20285;-70
2021/05/02 03:56:37;;;;;;;33.47;21.20;;;;;;;6.14;100.00;96208.41;4941906;28;20187;-72
2021/05/02 03:59:12;;;;;;;37.47;22.17;;;;;;;6.18;100.00;96213.34;4948316;28;20219;-69
2021/05/02 04:01:49;;;;;;;41.25;24.92;;;;;;;6.22;100.00;96201.09;4933024;28;20729;-70
2021/05/02 04:04:18;;;;;;;34.50;22.13;;;;;;;6.34;100.00;96213.41;4954728;28;20230;-70
2021/05/02 04:06:45;;;;;;;40.40;22.65;;;;;;;6.44;100.00;96214.56;4944831;28;20258;-70
2021/05/02 04:09:14;;;;;;;34.13;20.42;;;;;;;6.47;100.00;96220.41;4942350;28;20223;-70
2021/05/02 04:11:42;;;;;;;31.75;20.73;;;;;;;6.36;99.91;96209.81;4938697;28;20195;-69
2021/05/02 04:14:11;;;;;;;40.42;23.50;;;;;;;6.50;100.00;96220.28;4948110;28;20219;-71
2021/05/02 04:16:38;;;;;;;41.42;23.38;;;;;;;6.46;99.61;96215.31;4946123;28;20179;-69
2021/05/02 04:19:07;;;;;;;32.15;21.65;;;;;;;6.48;100.00;96229.03;4943998;28;20393;-71
2021/05/02 04:21:36;;;;;;;41.42;22.33;;;;;;;6.47;99.88;96229.94;4952014;28;20198;-70
2021/05/02 04:24:05;;;;;;;35.25;22.48;;;;;;;6.39;99.71;96232.06;4951697;28;20215;-70
2021/05/02 04:26:32;;;;;;;39.13;23.30;;;;;;;6.31;100.00;96236.78;4950744;28;20245;-68
2021/05/02 04:28:59;;;;;;;37.60;23.77;;;;;;;6.21;99.54;96241.63;4941811;28;20690;-68
2021/05/02 04:31:26;;;;;;;39.50;23.48;;;;;;;6.26;100.00;96243.97;4943017;28;20551;-72
2021/05/02 04:33:53;;;;;;;44.35;24.85;;;;;;;6.35;100.00;96251.25;4939868;28;20269;-70
2021/05/02 04:36:21;;;;;;;35.80;22.52;;;;;;;6.48;99.96;96249.72;4947442;28;20183;-69
2021/05/02 04:38:48;;;;;;;38.20;23.13;;;;;;;6.53;98.91;96258.03;4924885;28;20679;-71
2021/05/02 04:41:14;;;;;;;33.53;22.63;;;;;;;6.55;98.85;96258.81;4941348;28;20314;-68
2021/05/02 04:43:41;;;;;;;38.65;23.65;;;;;;;6.59;98.69;96270.66;4938420;28;20215;-70
2021/05/02 04:46:11;;;;;;;33.38;22.23;;;;;;;6.59;99.47;96268.91;4946686;28;20191;-71
2021/05/02 04:48:39;;;;;;;30.27;20.25;;;;;;;6.61;99.51;96280.00;4946032;28;21000;-70
2021/05/02 04:51:06;;;;;;;31.13;21.05;;;;;;;6.60;98.63;96269.72;4943172;28;20210;-71
2021/05/02 04:53:34;;;;;;;44.00;22.98;;;;;;;6.56;98.58;96284.56;4947556;28;20692;-70
2021/05/02 04:56:02;;;;;;;38.53;23.67;;;;;;;6.54;98.06;96283.81;4944244;28;20195;-69
2021/05/02 04:58:29;;;;;;;38.67;22.65;;;;;;;6.59;98.42;96301.69;4951893;28;20200;-69
2021/05/02 05:00:56;;;;;;;35.33;21.20;;;;;;;6.50;97.67;96292.66;4949948;28;20246;-70
2021/05/02 05:03:22;;;;;;;33.55;22.38;;;;;;;6.64;97.56;96294.53;4932286;28;20615;-69
2021/05/02 05:05:50;;;;;;;34.92;21.80;;;;;;;6.77;97.00;96290.41;4924662;28;20188;-70
2021/05/02 05:08:17;;;;;;;35.35;21.88;;;;;;;6.83;96.45;96300.41;4914712;28;20267;-70
2021/05/02 05:10:44;;;;;;;47.22;22.38;;;;;;;6.90;96.55;96301.75;4913564;28;20711;-70
2021/05/02 05:13:11;;;;;;;44.17;21.98;;;;;;;6.86;96.71;96300.25;4916220;29;20451;-71
2021/05/02 05:15:38;;;;;;;38.75;22.00;;;;;;;6.89;96.82;96300.09;4914957;29;20287;-72
2021/05/02 05:18:05;;;;;;;33.65;22.75;;;;;;;6.78;96.69;96307.59;4910488;29;20204;-69
2021/05/02 05:20:33;;;;;;;35.58;20.75;;;;;;;6.78;97.82;96303.22;4912928;29;20747;-69
2021/05/02 05:23:00;;;;;;;28.15;19.15;;;;;;;6.63;96.94;96303.22;4908152;28;20188;-70
2021/05/02 05:25:27;;;;;;;37.15;20.10;;;;;;;6.61;96.59;96299.84;4910790;29;20243;-69
2021/05/02 05:27:55;;;;;;;31.15;19.75;;;;;;;6.55;97.01;96313.09;4923356;28;20550;-70
2021/05/02 05:30:22;;;;;;;36.25;20.80;;;;;;;6.63;97.70;96310.97;4914827;29;20231;-71
2021/05/02 05:32:49;;;;;;;47.25;26.33;;;;;;;6.77;97.57;96314.50;4916314;29;20589;-69
2021/05/02 05:35:16;;;;;;;50.60;26.88;;;;;;;6.84;97.18;96323.63;4921601;28;20722;-72
2021/05/02 05:37:42;;;;;;;31.88;20.45;;;;;;;6.76;97.07;96325.75;4903520;29;20192;-70
2021/05/02 05:40:11;;;;;;;43.05;20.00;;;;;;;6.75;96.62;96321.50;4910564;28;20711;-70
2021/05/02 05:42:38;;;;;;;35.72;18.92;;;;;;;6.79;95.56;96322.19;4913811;28;20596;-70
2021/05/02 05:45:08;;;;;;;30.95;18.80;;;;;;;6.88;95.78;96321.69;4912272;28;20770;-69
2021/05/02 05:47:35;;;;;;;29.77;19.55;;;;;;;6.91;96.82;96329.31;4915758;29;20469;-70
2021/05/02 05:50:02;;;;;;;31.38;19.15;;;;;;;6.95;95.98;96329.06;4924361;28;20283;-69
2021/05/02 05:52:29;;;;;;;32.72;18.67;;;;;;;7.06;96.25;96329.34;4909899;28;20188;-72
2021/05/02 05:54:56;;;;;;;36.63;20.02;;;;;;;7.00;96.09;96334.00;4910352;28;20453;-68
2021/05/02 05:57:23;;;;;;;26.15;17.77;;;;;;;7.08;96.09;96339.63;4919370;28;20227;-71
2021/05/02 05:59:50;;;;;;;33.75;18.83;;;;;;;7.03;94.87;96329.50;4913613;28;20232;-69
2021/05/02 06:02:20;;;;;;;24.65;16.70;;;;;;;7.06;94.30;96334.50;4928959;28;20204;-70
2021/05/02 06:04:47;;;;;;;28.83;18.25;;;;;;;7.09;93.99;96341.28;4940101;28;20219;-71
2021/05/02 06:07:14;;;;;;;34.78;17.95;;;;;;;7.09;95.60;96343.88;4938091;28;20190;-69
2021/05/02 06:09:41;;;;;;;25.08;17.20;;;;;;;7.14;94.32;96347.06;4933703;28;20949;-72
2021/05/02 06:12:09;;;;;;;31.65;20.25;;;;;;;7.07;95.06;96340.53;4942586;28;20554;-71
2021/05/02 06:14:35;;;;;;;28.17;19.15;;;;;;;7.24;95.01;96353.41;4946952;28;20222;-72
2021/05/02 06:17:03;;;;;;;29.02;18.60;;;;;;;7.34;95.33;96352.00;4945524;28;20266;-72
2021/05/02 06:19:31;;;;;;;23.90;16.35;;;;;;;7.45;94.29;96360.03;4944513;28;20599;-71
2021/05/02 06:21:58;;;;;;;25.20;16.73;;;;;;;7.53;94.17;96366.50;4949448;28;20763;-70
2021/05/02 06:24:29;;;;;;;27.40;17.00;;;;;;;7.55;94.73;96363.81;4937563;28;20234;-70
2021/05/02 06:26:56;;;;;;;24.63;16.85;;;;;;;7.68;92.60;96360.50;4939425;28;20642;-73
2021/05/02 06:29:23;;;;;;;26.83;17.40;;;;;;;7.79;92.34;96354.72;4941356;28;20554;-74
2021/05/02 06:31:50;;;;;;;37.38;16.25;;;;;;;7.94;91.73;96352.09;4953130;28;20257;-71
2021/05/02 06:34:17;;;;;;;26.00;16.75;;;;;;;8.17;91.52;96354.22;4945839;28;20223;-70
2021/05/02 06:36:45;;;;;;;30.10;17.02;;;;;;;8.28;91.30;96357.09;4945820;28;20191;-71
2021/05/02 06:39:13;;;;;;;30.23;16.95;;;;;;;8.47;90.61;96353.38;4947618;28;20289;-74
2021/05/02 06:41:44;;;;;;;19.47;13.77;;;;;;;8.51;87.81;96357.47;4945716;28;20647;-71
2021/05/02 06:44:12;;;;;;;22.10;12.93;;;;;;;8.42;87.29;96365.75;4940432;28;20857;-73
2021/05/02 06:46:39;;;;;;;21.85;13.23;;;;;;;8.54;85.45;96354.69;4938082;28;20516;-70
2021/05/02 06:49:08;;;;;;;21.27;14.67;;;;;;;8.62;87.13;96362.84;4940450;28;20686;-70
2021/05/02 06:51:35;;;;;;;27.63;15.17;;;;;;;8.94;84.56;96372.16;4938877;28;21103;-71
2021/05/02 06:54:04;;;;;;;22.40;13.07;;;;;;;9.18;84.59;96372.47;4938516;28;20548;-69
2021/05/02 06:56:31;;;;;;;18.47;13.07;;;;;;;9.32;84.69;96381.13;4937792;28;20453;-70
2021/05/02 06:58:58;;;;;;;25.77;13.70;;;;;;;9.50;83.34;96382.59;4942610;28;20505;-70
2021/05/02 07:01:26;;;;;;;17.63;12.47;;;;;;;9.64;82.58;96381.72;4941293;28;20457;-71
2021/05/02 07:03:53;;;;;;;19.57;11.40;;;;;;;9.53;82.03;96390.19;4927366;28;20494;-71
2021/05/02 07:06:32;;;;;;;18.43;13.07;;;;;;;9.72;81.94;96382.94;4937102;28;20440;-73
2021/05/02 07:08:58;;;;;;;30.93;18.30;;;;;;;9.76;80.03;96381.00;4938990;28;20454;-71
2021/05/02 07:11:26;;;;;;;18.67;13.60;;;;;;;9.84;81.53;96383.94;4943197;28;20829;-72
2021/05/02 07:13:53;;;;;;;20.23;12.23;;;;;;;9.79;81.18;96381.63;4939927;28;20470;-69
2021/05/02 07:16:21;;;;;;;17.23;11.83;;;;;;;9.82;79.82;96380.59;4939159;28;20828;-69
2021/05/02 07:18:49;;;;;;;32.77;11.77;;;;;;;9.71;79.75;96385.63;4945652;28;20942;-71
2021/05/02 07:21:18;;;;;;;18.00;12.33;;;;;;;9.64;79.04;96387.78;4943493;28;20445;-70
2021/05/02 07:23:47;;;;;;;22.47;11.93;;;;;;;9.76;80.44;96392.22;4940465;28;20952;-70
2021/05/02 07:26:14;;;;;;;20.30;12.27;;;;;;;9.80;80.46;96398.06;4969002;28;20515;-70
2021/05/02 07:28:42;;;;;;;18.40;10.90;;;;;;;9.87;79.76;96399.38;4946342;28;20853;-71
2021/05/02 07:31:10;;;;;;;14.73;11.30;;;;;;;10.17;79.64;96393.06;4944477;28;20788;-70
2021/05/02 07:33:37;;;;;;;23.63;11.30;;;;;;;10.48;77.40;96397.97;4938169;28;20465;-70
2021/05/02 07:36:05;;;;;;;16.67;10.70;;;;;;;10.68;77.86;96400.13;4946448;28;20525;-72
2021/05/02 07:38:32;;;;;;;17.37;10.73;;;;;;;10.85;76.93;96399.88;4951583;28;20453;-72
2021/05/02 07:40:59;;;;;;;16.60;11.20;;;;;;;10.78;75.46;96398.59;4941460;28;20431;-71
2021/05/02 07:43:26;;;;;;;20.20;11.97;;;;;;;10.95;75.18;96398.31;4943612;28;20517;-71
2021/05/02 07:45:54;;;;;;;19.73;10.50;;;;;;;11.03;75.18;96405.59;4942805;28;20438;-72
2021/05/02 07:48:21;;;;;;;16.90;11.53;;;;;;;10.85;73.07;96405.09;4944930;28;20630;-72
2021/05/02 07:50:48;;;;;;;21.33;11.50;;;;;;;10.40;72.62;96415.03;4947016;28;20825;-73
2021/05/02 07:53:17;;;;;;;17.20;10.53;;;;;;;10.42;74.67;96414.00;4943519;28;20508;-70
2021/05/02 07:55:44;;;;;;;19.07;13.50;;;;;;;10.67;74.29;96406.28;4937559;28;20513;-68
2021/05/02 07:58:11;;;;;;;17.57;11.73;;;;;;;10.67;71.96;96419.28;4939239;28;20966;-73
2021/05/02 08:00:38;;;;;;;19.97;12.63;;;;;;;10.55;70.68;96414.03;4938875;28;20847;-70
2021/05/02 08:03:06;;;;;;;17.60;12.60;;;;;;;10.63;71.42;96417.84;4942079;28;20484;-73
2021/05/02 08:05:33;;;;;;;20.13;11.90;;;;;;;10.78;73.09;96426.41;4947230;28;20958;-72
2021/05/02 08:08:00;;;;;;;23.03;11.93;;;;;;;10.57;69.56;96430.38;4946411;28;20990;-74
2021/05/02 08:10:28;;;;;;;23.00;11.90;;;;;;;10.22;70.80;96424.84;4946661;28;20488;-75
2021/05/02 08:12:55;;;;;;;22.60;12.80;;;;;;;10.30;73.72;96438.19;4947932;28;20438;-77
2021/05/02 08:15:23;;;;;;;14.80;10.70;;;;;;;10.46;73.72;96436.28;4936614;28;20466;-77
2021/05/02 08:17:50;;;;;;;20.00;12.13;;;;;;;10.27;74.38;96438.41;4941627;28;20435;-75
2021/05/02 08:20:17;;;;;;;22.20;11.20;;;;;;;10.15;73.10;96446.13;4941449;28;20462;-73
2021/05/02 08:22:44;;;;;;;22.83;13.17;;;;;;;9.89;73.26;96450.31;4946299;28;20442;-74
2021/05/02 08:25:12;;;;;;;18.03;11.97;;;;;;;9.83;74.87;96455.91;4945919;28;21017;-72
2021/05/02 08:27:39;;;;;;;17.20;10.90;;;;;;;9.66;74.90;96458.66;4947017;28;20918;-74
2021/05/02 08:30:08;;;;;;;18.47;12.23;;;;;;;9.70;75.12;96462.78;4941763;28;20544;-74
2021/05/02 08:32:35;;;;;;;18.80;11.40;;;;;;;9.67;74.99;96451.72;4941349;28;20470;-73
2021/05/02 08:35:03;;;;;;;17.27;10.83;;;;;;;9.61;76.32;96458.13;4938529;28;20868;-74
2021/05/02 08:37:31;;;;;;;18.50;10.57;;;;;;;10.02;75.05;96458.22;4945187;28;20802;-74
2021/05/02 08:40:04;;;;;;;18.00;11.60;;;;;;;10.24;74.01;96455.97;4944918;28;20502;-74
2021/05/02 08:42:34;;;;;;;19.17;12.10;;;;;;;10.57;73.24;96446.84;4948657;28;20724;-73
2021/05/02 08:45:02;;;;;;;21.27;12.53;;;;;;;11.01;73.24;96455.22;4944900;28;20965;-74
2021/05/02 08:47:35;;;;;;;15.13;11.03;;;;;;;11.77;71.68;96454.34;4945384;28;20949;-74
2021/05/02 08:50:06;;;;;;;18.17;12.67;;;;;;;12.16;69.12;96454.16;4942472;28;20848;-73
2021/05/02 08:52:34;;;;;;;15.93;11.73;;;;;;;12.74;68.79;96451.66;4944183;28;20941;-74
2021/05/02 08:55:01;;;;;;;14.57;11.30;;;;;;;13.20;67.01;96450.00;4938782;28;20786;-71
2021/05/02 08:57:28;;;;;;;20.80;13.57;;;;;;;13.34;64.22;96452.44;4942983;28;20446;-71
2021/05/02 08:59:55;;;;;;;18.63;12.10;;;;;;;13.18;63.61;96452.72;4948224;28;20478;-73
2021/05/02 09:02:23;;;;;;;20.63;12.13;;;;;;;12.68;63.08;96457.38;4946940;28;20893;-74
2021/05/02 09:04:55;;;;;;;17.13;11.40;;;;;;;12.16;63.23;96462.00;4937977;28;20899;-72
2021/05/02 09:07:23;;;;;;;20.27;12.57;;;;;;;11.70;65.72;96460.91;4940484;28;20503;-69
2021/05/02 09:09:51;;;;;;;18.27;12.77;;;;;;;11.70;66.14;96460.91;4942748;28;20470;-72
2021/05/02 09:12:22;;;;;;;18.43;11.07;;;;;;;12.12;68.16;96457.94;4950359;28;20908;-71
2021/05/02 09:14:51;;;;;;;30.73;18.30;;;;;;;12.65;67.39;96457.56;4949089;28;20806;-72
2021/05/02 09:17:25;;;;;;;18.20;12.10;;;;;;;12.86;65.39;96456.84;4940853;28;20925;-71
2021/05/02 09:19:53;;;;;;;22.73;13.20;;;;;;;12.05;65.34;96451.50;4945194;28;21182;-72
2021/05/02 09:22:22;;;;;;;18.30;12.53;;;;;;;12.18;65.25;96454.06;4952514;28;20873;-71
2021/05/02 09:25:02;;;;;;;16.83;12.67;;;;;;;11.75;63.51;96456.22;4948903;28;20462;-72
2021/05/02 09:27:29;;;;;;;24.60;13.30;;;;;;;11.48;63.44;96450.25;4944853;28;20742;-72
2021/05/02 09:30:13;;;;;;;20.07;13.57;;;;;;;11.36;64.72;96448.50;4947217;28;20475;-71
2021/05/02 09:32:44;;;;;;;19.23;12.97;;;;;;;11.23;64.76;96458.06;4945821;28;20430;-72
2021/05/02 09:35:28;;;;;;;20.77;14.20;;;;;;;11.73;67.31;96455.50;4950017;28;20470;-72
2021/05/02 09:38:11;;;;;;;26.10;13.07;;;;;;;11.90;61.93;96460.38;4941319;28;20949;-69
2021/05/02 09:40:50;;;;;;;21.87;13.33;;;;;;;11.73;63.19;96432.03;4942796;28;20466;-72
2021/05/02 09:43:35;;;;;;;22.20;14.33;;;;;;;12.53;63.54;96452.41;4939661;28;20458;-71
2021/05/02 09:46:27;;;;;;;21.27;14.60;;;;;;;12.70;60.27;96458.06;4943196;28;20448;-70
2021/05/02 09:48:57;;;;;;;21.90;15.57;;;;;;;12.38;61.02;96453.50;4941877;28;20470;-70
2021/05/02 09:51:26;;;;;;;27.70;15.57;;;;;;;12.26;61.47;96444.78;4938752;28;20940;-73
2021/05/02 09:54:18;;;;;;;21.10;13.37;;;;;;;11.59;61.72;96463.44;4947029;28;21002;-71
2021/05/02 09:56:58;;;;;;;21.57;13.63;;;;;;;11.38;62.71;96454.44;4912354;28;20620;-71
2021/05/02 09:59:28;;;;;;;27.20;14.93;;;;;;;11.39;63.34;96463.91;4944012;28;20466;-73
2021/05/02 10:02:15;;;;;;;20.80;13.23;;;;;;;11.76;61.71;96460.50;4944366;28;20993;-71
2021/05/02 10:04:45;;;;;;;27.50;13.70;;;;;;;12.07;61.72;96470.47;4937491;28;20478;-71
2021/05/02 10:07:13;;;;;;;25.07;14.37;;;;;;;12.36;60.74;96464.03;4944996;28;20817;-71
2021/05/02 10:09:41;;;;;;;24.83;13.47;;;;;;;12.98;61.36;96460.38;4949056;28;20478;-70
2021/05/02 10:12:10;;;;;;;21.70;13.57;;;;;;;12.73;58.69;96455.22;4949676;28;20439;-72
2021/05/02 10:14:38;;;;;;;20.13;13.23;;;;;;;12.12;59.72;96463.16;4943415;28;20822;-71
2021/05/02 10:17:08;;;;;;;21.60;13.17;;;;;;;12.01;59.48;96465.69;4941825;28;20442;-72
2021/05/02 10:19:36;;;;;;;20.30;14.20;;;;;;;12.01;62.88;96473.50;4941968;28;20487;-72
2021/05/02 10:22:04;;;;;;;19.63;13.90;;;;;;;12.42;61.05;96461.00;4942151;28;20833;-69
2021/05/02 10:24:34;;;;;;;20.20;12.77;;;;;;;12.43;59.90;96452.22;4944515;28;20962;-72
2021/05/02 10:27:06;;;;;;;22.03;15.77;;;;;;;12.52;60.18;96459.38;4944304;28;20529;-70
2021/05/02 10:29:38;;;;;;;19.23;13.13;;;;;;;13.14;59.67;96453.88;4942977;28;20794;-70
2021/05/02 10:32:08;;;;;;;23.90;14.40;;;;;;;13.86;56.01;96440.47;4942973;28;20537;-71
2021/05/02 10:34:37;;;;;;;18.37;11.77;;;;;;;13.44;54.85;96454.22;4942191;28;20772;-73
2021/05/02 10:37:33;;;;;;;20.73;13.37;;;;;;;13.07;56.83;96449.25;4926324;28;20474;-74
2021/05/02 10:40:06;;;;;;;18.33;12.07;;;;;;;12.25;55.20;96463.97;4944354;28;20965;-74
2021/05/02 10:42:41;;;;;;;20.07;13.67;;;;;;;11.29;59.88;96449.84;4942210;28;20695;-73
2021/05/02 10:45:40;;;;;;;21.83;13.90;;;;;;;11.17;63.42;96471.50;4945512;28;20454;-75
2021/05/02 10:48:36;;;;;;;20.17;12.43;;;;;;;11.22;66.87;96479.00;4951503;28;20656;-74
2021/05/02 10:51:04;;;;;;;23.80;17.00;;;;;;;11.08;71.37;96487.72;4944016;28;20455;-73
2021/05/02 10:53:31;;;;;;;20.17;14.17;;;;;;;10.96;72.95;96487.66;4943070;28;21016;-73
2021/05/02 10:56:02;;;;;;;20.10;12.40;;;;;;;11.04;69.75;96481.03;4943307;28;20442;-75
2021/05/02 10:58:31;;;;;;;21.97;15.57;;;;;;;11.52;71.61;96476.94;4945294;28;20508;-73
2021/05/02 11:01:02;;;;;;;30.73;14.90;;;;;;;11.98;69.78;96484.16;4943349;28;20431;-74
2021/05/02 11:04:01;;;;;;;20.60;13.80;;;;;;;12.71;67.43;96483.25;4944291;28;20531;-72
2021/05/02 11:06:53;;;;;;;28.10;18.90;;;;;;;12.88;65.96;96480.22;4941402;28;20481;-73
2021/05/02 11:09:29;;;;;;;19.73;13.83;;;;;;;12.98;63.05;96471.66;4944151;28;20853;-74
2021/05/02 11:11:58;;;;;;;22.20;13.73;;;;;;;12.96;63.54;96484.00;4947829;28;21098;-73
2021/05/02 11:14:30;;;;;;;18.07;12.67;;;;;;;13.07;62.54;96491.06;4951988;28;20463;-73
2021/05/02 11:17:20;;;;;;;22.20;13.47;;;;;;;13.10;65.40;96490.81;4943973;28;20930;-74
2021/05/02 11:19:47;;;;;;;19.23;11.73;;;;;;;13.05;65.20;96495.56;4933675;28;20486;-74
2021/05/02 11:22:16;;;;;;;18.77;12.63;;;;;;;13.17;63.75;96486.81;4948151;28;20948;-74
2021/05/02 11:24:53;;;;;;;19.57;13.10;;;;;;;13.31;61.80;96484.00;4944316;28;20458;-73
2021/05/02 11:27:41;;;;;;;17.47;12.70;;;;;;;13.44;62.30;96493.47;4939978;28;20497;-72
2021/05/02 11:30:17;;;;;;;15.20;10.90;;;;;;;13.27;60.96;96487.81;4943617;28;20984;-74
2021/05/02 11:32:48;;;;;;;16.27;10.43;;;;;;;13.32;62.64;96485.66;4934111;28;20438;-74
2021/05/02 11:35:17;;;;;;;18.00;10.33;;;;;;;13.54;61.81;96486.56;4940160;28;20467;-74